sensor_id;sensor_type;location;lat;lon;timestamp;temperature;humidity
22716;DHT22;11525;51.152;4.456;2023-09-30T00:01:56;13.90;99.90
22716;DHT22;11525;51.152;4.456;2023-09-30T00:04:21;13.80;99.90
22716;DHT22;11525;51.152;4.456;2023-09-30T00:06:47;13.90;99.90
22716;DHT22;11525;51.152;4.456;2023-09-30T00:09:13;13.90;99.90
22716;DHT22;11525;51.152;4.456;2023-09-30T00:11:39;13.80;99.90
22716;DHT22;11525;51.152;4.456;2023-09-30T00:14:04;13.70;99.90
22716;DHT22;11525;51.152;4.456;2023-09-30T00:16:30;13.60;99.90
22716;DHT22;11525;51.152;4.456;2023-09-30T00:18:56;13.60;99.90
22716;DHT22;11525;51.152;4.456;2023-09-30T00:21:24;13.70;99.90
22716;DHT22;11525;51.152;4.456;2023-09-30T00:23:49;13.80;99.90
22716;DHT22;11525;51.152;4.456;2023-09-30T00:26:15;13.80;99.90
22716;DHT22;11525;51.152;4.456;2023-09-30T00:28:40;13.80;99.90
22716;DHT22;11525;51.152;4.456;2023-09-30T00:31:07;13.80;99.90
22716;DHT22;11525;51.152;4.456;2023-09-30T00:33:36;13.80;99.90
22716;DHT22;11525;51.152;4.456;2023-09-30T00:36:09;13.70;99.90
22716;DHT22;11525;51.152;4.456;2023-09-30T00:38:39;13.60;99.90
22716;DHT22;11525;51.152;4.456;2023-09-30T00:41:06;13.50;99.90
22716;DHT22;11525;51.152;4.456;2023-09-30T00:43:33;13.50;99.90
22716;DHT22;11525;51.152;4.456;2023-09-30T00:48:33;13.60;99.90
22716;DHT22;11525;51.152;4.456;2023-09-30T00:50:59;13.60;99.90
22716;DHT22;11525;51.152;4.456;2023-09-30T00:53:25;13.60;99.90
22716;DHT22;11525;51.152;4.456;2023-09-30T00:55:52;13.60;99.90
22716;DHT22;11525;51.152;4.456;2023-09-30T00:58:20;13.50;99.90
22716;DHT22;11525;51.152;4.456;2023-09-30T01:00:46;13.30;99.90
22716;DHT22;11525;51.152;4.456;2023-09-30T01:03:12;13.30;99.90
22716;DHT22;11525;51.152;4.456;2023-09-30T01:05:38;13.40;99.90
22716;DHT22;11525;51.152;4.456;2023-09-30T01:08:04;13.40;99.90
22716;DHT22;11525;51.152;4.456;2023-09-30T01:10:30;13.40;99.90
22716;DHT22;11525;51.152;4.456;2023-09-30T01:12:55;13.20;99.90
22716;DHT22;11525;51.152;4.456;2023-09-30T01:15:21;13.10;99.90
22716;DHT22;11525;51.152;4.456;2023-09-30T01:17:46;13.10;99.90
22716;DHT22;11525;51.152;4.456;2023-09-30T01:20:14;13.10;99.90
22716;DHT22;11525;51.152;4.456;2023-09-30T01:22:42;13.00;99.90
22716;DHT22;11525;51.152;4.456;2023-09-30T01:25:10;13.00;99.90
22716;DHT22;11525;51.152;4.456;2023-09-30T01:27:36;13.00;99.90
22716;DHT22;11525;51.152;4.456;2023-09-30T01:30:02;13.00;99.90
22716;DHT22;11525;51.152;4.456;2023-09-30T01:32:28;13.00;99.90
22716;DHT22;11525;51.152;4.456;2023-09-30T01:34:54;13.00;99.90
22716;DHT22;11525;51.152;4.456;2023-09-30T01:37:19;13.00;99.90
22716;DHT22;11525;51.152;4.456;2023-09-30T01:39:45;13.00;99.90
22716;DHT22;11525;51.152;4.456;2023-09-30T01:42:11;13.00;99.90
22716;DHT22;11525;51.152;4.456;2023-09-30T01:44:37;13.10;99.90
22716;DHT22;11525;51.152;4.456;2023-09-30T01:47:02;13.20;99.90
22716;DHT22;11525;51.152;4.456;2023-09-30T01:49:28;13.20;99.90
22716;DHT22;11525;51.152;4.456;2023-09-30T01:51:53;13.20;99.90
22716;DHT22;11525;51.152;4.456;2023-09-30T01:54:22;13.20;99.90
22716;DHT22;11525;51.152;4.456;2023-09-30T01:56:48;13.20;99.90
22716;DHT22;11525;51.152;4.456;2023-09-30T01:59:15;13.20;99.90
22716;DHT22;11525;51.152;4.456;2023-09-30T02:01:40;13.00;99.90
22716;DHT22;11525;51.152;4.456;2023-09-30T02:04:06;12.90;99.90
22716;DHT22;11525;51.152;4.456;2023-09-30T02:06:32;12.90;99.90
22716;DHT22;11525;51.152;4.456;2023-09-30T02:08:57;12.90;99.90
22716;DHT22;11525;51.152;4.456;2023-09-30T02:11:23;12.80;99.90
22716;DHT22;11525;51.152;4.456;2023-09-30T02:13:49;12.70;99.90
22716;DHT22;11525;51.152;4.456;2023-09-30T02:16:14;12.80;99.90
22716;DHT22;11525;51.152;4.456;2023-09-30T02:18:43;12.90;99.90
22716;DHT22;11525;51.152;4.456;2023-09-30T02:21:10;12.90;99.90
22716;DHT22;11525;51.152;4.456;2023-09-30T02:23:36;12.80;99.90
22716;DHT22;11525;51.152;4.456;2023-09-30T02:26:02;12.80;99.90
22716;DHT22;11525;51.152;4.456;2023-09-30T02:28:29;12.90;99.90
22716;DHT22;11525;51.152;4.456;2023-09-30T02:30:58;12.90;99.90
22716;DHT22;11525;51.152;4.456;2023-09-30T02:33:24;12.80;99.90
22716;DHT22;11525;51.152;4.456;2023-09-30T02:35:51;12.80;99.90
22716;DHT22;11525;51.152;4.456;2023-09-30T02:38:17;12.90;99.90
22716;DHT22;11525;51.152;4.456;2023-09-30T02:40:44;12.90;99.90
22716;DHT22;11525;51.152;4.456;2023-09-30T02:43:12;13.00;99.90
22716;DHT22;11525;51.152;4.456;2023-09-30T02:45:38;13.00;99.90
22716;DHT22;11525;51.152;4.456;2023-09-30T02:48:04;12.90;99.90
22716;DHT22;11525;51.152;4.456;2023-09-30T02:50:30;12.80;99.90
22716;DHT22;11525;51.152;4.456;2023-09-30T02:52:55;12.80;99.90
22716;DHT22;11525;51.152;4.456;2023-09-30T02:55:21;12.90;99.90
22716;DHT22;11525;51.152;4.456;2023-09-30T02:57:47;13.00;99.90
22716;DHT22;11525;51.152;4.456;2023-09-30T03:00:13;13.10;99.90
22716;DHT22;11525;51.152;4.456;2023-09-30T03:02:59;13.00;99.90
22716;DHT22;11525;51.152;4.456;2023-09-30T03:05:25;12.80;99.90
22716;DHT22;11525;51.152;4.456;2023-09-30T03:07:52;12.70;99.90
22716;DHT22;11525;51.152;4.456;2023-09-30T03:10:18;12.80;99.90
22716;DHT22;11525;51.152;4.456;2023-09-30T03:12:51;12.80;99.90
22716;DHT22;11525;51.152;4.456;2023-09-30T03:15:17;12.90;99.90
22716;DHT22;11525;51.152;4.456;2023-09-30T03:17:44;12.90;99.90
22716;DHT22;11525;51.152;4.456;2023-09-30T03:20:10;13.00;99.90
22716;DHT22;11525;51.152;4.456;2023-09-30T03:22:43;12.90;99.90
22716;DHT22;11525;51.152;4.456;2023-09-30T03:25:12;12.80;99.90
22716;DHT22;11525;51.152;4.456;2023-09-30T03:27:40;12.80;99.90
22716;DHT22;11525;51.152;4.456;2023-09-30T03:30:07;12.80;99.90
22716;DHT22;11525;51.152;4.456;2023-09-30T03:32:34;13.00;99.90
22716;DHT22;11525;51.152;4.456;2023-09-30T03:35:02;13.00;99.90
22716;DHT22;11525;51.152;4.456;2023-09-30T03:37:28;12.80;99.90
22716;DHT22;11525;51.152;4.456;2023-09-30T03:39:54;12.80;99.90
22716;DHT22;11525;51.152;4.456;2023-09-30T03:42:20;12.80;99.90
22716;DHT22;11525;51.152;4.456;2023-09-30T03:44:46;12.70;99.90
22716;DHT22;11525;51.152;4.456;2023-09-30T03:47:14;12.80;99.90
22716;DHT22;11525;51.152;4.456;2023-09-30T03:49:41;12.80;99.90
22716;DHT22;11525;51.152;4.456;2023-09-30T03:52:08;12.80;99.90
22716;DHT22;11525;51.152;4.456;2023-09-30T03:54:34;12.80;99.90
22716;DHT22;11525;51.152;4.456;2023-09-30T03:57:00;12.80;99.90
22716;DHT22;11525;51.152;4.456;2023-09-30T03:59:26;12.80;99.90
22716;DHT22;11525;51.152;4.456;2023-09-30T04:01:53;12.80;99.90
22716;DHT22;11525;51.152;4.456;2023-09-30T04:04:20;12.80;99.90
22716;DHT22;11525;51.152;4.456;2023-09-30T04:06:48;12.90;99.90
22716;DHT22;11525;51.152;4.456;2023-09-30T04:09:17;12.80;99.90
22716;DHT22;11525;51.152;4.456;2023-09-30T04:11:43;12.80;99.90
22716;DHT22;11525;51.152;4.456;2023-09-30T04:14:09;12.80;99.90
22716;DHT22;11525;51.152;4.456;2023-09-30T04:16:35;12.80;99.90
22716;DHT22;11525;51.152;4.456;2023-09-30T04:19:02;12.80;99.90
22716;DHT22;11525;51.152;4.456;2023-09-30T04:21:28;12.70;99.90
22716;DHT22;11525;51.152;4.456;2023-09-30T04:23:55;12.70;99.90
22716;DHT22;11525;51.152;4.456;2023-09-30T04:26:22;12.70;99.90
22716;DHT22;11525;51.152;4.456;2023-09-30T04:28:47;12.70;99.90
22716;DHT22;11525;51.152;4.456;2023-09-30T04:31:13;12.80;99.90
22716;DHT22;11525;51.152;4.456;2023-09-30T04:33:39;12.80;99.90
22716;DHT22;11525;51.152;4.456;2023-09-30T04:36:08;12.80;99.90
22716;DHT22;11525;51.152;4.456;2023-09-30T04:38:35;12.80;99.90
22716;DHT22;11525;51.152;4.456;2023-09-30T04:41:03;12.70;99.90
22716;DHT22;11525;51.152;4.456;2023-09-30T04:43:29;12.70;99.90
22716;DHT22;11525;51.152;4.456;2023-09-30T04:45:55;12.70;99.90
22716;DHT22;11525;51.152;4.456;2023-09-30T04:48:23;12.80;99.90
22716;DHT22;11525;51.152;4.456;2023-09-30T04:50:49;12.80;99.90
22716;DHT22;11525;51.152;4.456;2023-09-30T04:53:14;12.80;99.90
22716;DHT22;11525;51.152;4.456;2023-09-30T04:55:46;12.80;99.90
22716;DHT22;11525;51.152;4.456;2023-09-30T04:58:13;12.80;99.90
22716;DHT22;11525;51.152;4.456;2023-09-30T05:00:38;12.80;99.90
22716;DHT22;11525;51.152;4.456;2023-09-30T05:03:05;12.70;99.90
22716;DHT22;11525;51.152;4.456;2023-09-30T05:05:30;12.70;99.90
22716;DHT22;11525;51.152;4.456;2023-09-30T05:07:56;12.70;99.90
22716;DHT22;11525;51.152;4.456;2023-09-30T05:10:23;12.80;99.90
22716;DHT22;11525;51.152;4.456;2023-09-30T05:12:49;12.80;99.90
22716;DHT22;11525;51.152;4.456;2023-09-30T05:15:17;12.70;99.90
22716;DHT22;11525;51.152;4.456;2023-09-30T05:17:48;12.70;99.90
22716;DHT22;11525;51.152;4.456;2023-09-30T05:20:15;12.70;99.90
22716;DHT22;11525;51.152;4.456;2023-09-30T05:22:42;12.70;99.90
22716;DHT22;11525;51.152;4.456;2023-09-30T05:25:12;12.70;99.90
22716;DHT22;11525;51.152;4.456;2023-09-30T05:27:37;12.60;99.90
22716;DHT22;11525;51.152;4.456;2023-09-30T05:30:04;12.60;99.90
22716;DHT22;11525;51.152;4.456;2023-09-30T05:32:32;12.60;99.90
22716;DHT22;11525;51.152;4.456;2023-09-30T05:34:57;12.70;99.90
22716;DHT22;11525;51.152;4.456;2023-09-30T05:37:24;12.70;99.90
22716;DHT22;11525;51.152;4.456;2023-09-30T05:39:51;12.60;99.90
22716;DHT22;11525;51.152;4.456;2023-09-30T05:42:17;12.60;99.90
22716;DHT22;11525;51.152;4.456;2023-09-30T05:44:44;12.50;99.90
22716;DHT22;11525;51.152;4.456;2023-09-30T05:47:10;12.60;99.90
22716;DHT22;11525;51.152;4.456;2023-09-30T05:49:35;12.60;99.90
22716;DHT22;11525;51.152;4.456;2023-09-30T05:52:02;12.70;99.90
22716;DHT22;11525;51.152;4.456;2023-09-30T05:54:28;12.70;99.90
22716;DHT22;11525;51.152;4.456;2023-09-30T05:56:54;12.70;99.90
22716;DHT22;11525;51.152;4.456;2023-09-30T05:59:21;12.70;99.90
22716;DHT22;11525;51.152;4.456;2023-09-30T06:01:47;12.70;99.90
22716;DHT22;11525;51.152;4.456;2023-09-30T06:04:12;12.70;99.90
22716;DHT22;11525;51.152;4.456;2023-09-30T06:06:38;12.70;99.90
22716;DHT22;11525;51.152;4.456;2023-09-30T06:09:04;12.80;99.90
22716;DHT22;11525;51.152;4.456;2023-09-30T06:11:33;12.80;99.90
22716;DHT22;11525;51.152;4.456;2023-09-30T06:13:59;12.80;99.90
22716;DHT22;11525;51.152;4.456;2023-09-30T06:16:26;12.90;99.90
22716;DHT22;11525;51.152;4.456;2023-09-30T06:18:55;12.90;99.90
22716;DHT22;11525;51.152;4.456;2023-09-30T06:21:21;13.00;99.90
22716;DHT22;11525;51.152;4.456;2023-09-30T06:23:48;13.00;99.90
22716;DHT22;11525;51.152;4.456;2023-09-30T06:26:23;13.20;99.90
22716;DHT22;11525;51.152;4.456;2023-09-30T06:28:50;13.20;99.90
22716;DHT22;11525;51.152;4.456;2023-09-30T06:31:19;13.30;99.90
22716;DHT22;11525;51.152;4.456;2023-09-30T06:33:44;13.40;99.90
22716;DHT22;11525;51.152;4.456;2023-09-30T06:36:12;13.50;99.90
22716;DHT22;11525;51.152;4.456;2023-09-30T06:38:41;13.60;99.90
22716;DHT22;11525;51.152;4.456;2023-09-30T06:41:16;13.70;99.90
22716;DHT22;11525;51.152;4.456;2023-09-30T06:43:42;13.80;99.90
22716;DHT22;11525;51.152;4.456;2023-09-30T06:46:09;14.00;99.90
22716;DHT22;11525;51.152;4.456;2023-09-30T06:48:35;14.30;99.90
22716;DHT22;11525;51.152;4.456;2023-09-30T06:51:01;14.40;99.90
22716;DHT22;11525;51.152;4.456;2023-09-30T06:53:27;14.50;99.90
22716;DHT22;11525;51.152;4.456;2023-09-30T06:55:53;14.60;99.90
22716;DHT22;11525;51.152;4.456;2023-09-30T06:58:18;14.60;99.90
22716;DHT22;11525;51.152;4.456;2023-09-30T07:00:48;14.70;99.90
22716;DHT22;11525;51.152;4.456;2023-09-30T07:03:15;14.80;99.90
22716;DHT22;11525;51.152;4.456;2023-09-30T07:05:41;14.80;99.90
22716;DHT22;11525;51.152;4.456;2023-09-30T07:08:07;15.00;99.90
22716;DHT22;11525;51.152;4.456;2023-09-30T07:10:33;15.00;99.90
22716;DHT22;11525;51.152;4.456;2023-09-30T07:13:01;15.10;99.90
22716;DHT22;11525;51.152;4.456;2023-09-30T07:15:27;15.30;99.90
22716;DHT22;11525;51.152;4.456;2023-09-30T07:17:53;15.40;99.90
22716;DHT22;11525;51.152;4.456;2023-09-30T07:20:19;15.40;99.90
22716;DHT22;11525;51.152;4.456;2023-09-30T07:22:46;15.50;99.90
22716;DHT22;11525;51.152;4.456;2023-09-30T07:25:12;15.60;99.90
22716;DHT22;11525;51.152;4.456;2023-09-30T07:27:40;15.70;99.90
22716;DHT22;11525;51.152;4.456;2023-09-30T07:30:06;16.00;99.90
22716;DHT22;11525;51.152;4.456;2023-09-30T07:32:32;16.10;99.90
22716;DHT22;11525;51.152;4.456;2023-09-30T07:34:58;16.10;99.90
22716;DHT22;11525;51.152;4.456;2023-09-30T07:37:23;16.40;99.90
22716;DHT22;11525;51.152;4.456;2023-09-30T07:39:49;16.40;99.90
22716;DHT22;11525;51.152;4.456;2023-09-30T07:42:15;16.60;99.90
22716;DHT22;11525;51.152;4.456;2023-09-30T07:44:42;16.70;99.90
22716;DHT22;11525;51.152;4.456;2023-09-30T07:47:08;16.90;99.90
22716;DHT22;11525;51.152;4.456;2023-09-30T07:49:38;16.80;99.90
22716;DHT22;11525;51.152;4.456;2023-09-30T07:52:03;17.00;99.90
22716;DHT22;11525;51.152;4.456;2023-09-30T07:54:29;17.10;99.90
22716;DHT22;11525;51.152;4.456;2023-09-30T07:56:55;17.20;99.90
22716;DHT22;11525;51.152;4.456;2023-09-30T07:59:21;17.10;99.90
22716;DHT22;11525;51.152;4.456;2023-09-30T08:01:47;17.40;99.90
22716;DHT22;11525;51.152;4.456;2023-09-30T08:04:13;17.60;99.90
22716;DHT22;11525;51.152;4.456;2023-09-30T08:06:39;17.80;99.90
22716;DHT22;11525;51.152;4.456;2023-09-30T08:09:05;18.00;99.90
22716;DHT22;11525;51.152;4.456;2023-09-30T08:11:35;18.10;99.90
22716;DHT22;11525;51.152;4.456;2023-09-30T08:14:05;18.40;99.90
22716;DHT22;11525;51.152;4.456;2023-09-30T08:16:33;18.50;99.90
22716;DHT22;11525;51.152;4.456;2023-09-30T08:18:58;18.90;99.90
22716;DHT22;11525;51.152;4.456;2023-09-30T08:21:24;19.00;99.90
22716;DHT22;11525;51.152;4.456;2023-09-30T08:23:50;19.10;99.90
22716;DHT22;11525;51.152;4.456;2023-09-30T08:26:15;19.30;99.90
22716;DHT22;11525;51.152;4.456;2023-09-30T08:28:41;19.60;99.90
22716;DHT22;11525;51.152;4.456;2023-09-30T08:31:08;19.60;99.90
22716;DHT22;11525;51.152;4.456;2023-09-30T08:33:34;20.10;99.90
22716;DHT22;11525;51.152;4.456;2023-09-30T08:36:06;21.30;99.90
22716;DHT22;11525;51.152;4.456;2023-09-30T08:38:37;22.60;99.90
22716;DHT22;11525;51.152;4.456;2023-09-30T08:41:04;23.60;99.90
22716;DHT22;11525;51.152;4.456;2023-09-30T08:43:30;24.30;99.90
22716;DHT22;11525;51.152;4.456;2023-09-30T08:45:59;24.40;99.90
22716;DHT22;11525;51.152;4.456;2023-09-30T08:48:28;24.30;99.90
22716;DHT22;11525;51.152;4.456;2023-09-30T08:50:54;23.90;99.90
22716;DHT22;11525;51.152;4.456;2023-09-30T08:53:20;25.00;99.90
22716;DHT22;11525;51.152;4.456;2023-09-30T08:55:46;26.50;99.90
22716;DHT22;11525;51.152;4.456;2023-09-30T08:58:13;27.50;99.90
22716;DHT22;11525;51.152;4.456;2023-09-30T09:00:40;28.10;96.70
22716;DHT22;11525;51.152;4.456;2023-09-30T09:03:07;27.80;96.60
22716;DHT22;11525;51.152;4.456;2023-09-30T09:05:33;27.80;95.90
22716;DHT22;11525;51.152;4.456;2023-09-30T09:07:58;27.90;95.00
22716;DHT22;11525;51.152;4.456;2023-09-30T09:10:24;28.30;93.40
22716;DHT22;11525;51.152;4.456;2023-09-30T09:12:58;28.50;92.80
22716;DHT22;11525;51.152;4.456;2023-09-30T09:15:28;29.00;90.80
22716;DHT22;11525;51.152;4.456;2023-09-30T09:17:54;29.60;90.70
22716;DHT22;11525;51.152;4.456;2023-09-30T09:20:22;29.90;86.50
22716;DHT22;11525;51.152;4.456;2023-09-30T09:22:51;30.30;82.50
22716;DHT22;11525;51.152;4.456;2023-09-30T09:25:20;30.50;79.50
22716;DHT22;11525;51.152;4.456;2023-09-30T09:27:48;30.40;80.00
22716;DHT22;11525;51.152;4.456;2023-09-30T09:30:32;30.40;80.10
22716;DHT22;11525;51.152;4.456;2023-09-30T09:35:25;30.70;76.80
22716;DHT22;11525;51.152;4.456;2023-09-30T09:38:02;30.70;75.00
22716;DHT22;11525;51.152;4.456;2023-09-30T09:40:38;30.10;77.20
22716;DHT22;11525;51.152;4.456;2023-09-30T09:43:06;28.90;82.30
22716;DHT22;11525;51.152;4.456;2023-09-30T09:45:37;28.60;83.90
22716;DHT22;11525;51.152;4.456;2023-09-30T09:48:06;28.50;83.70
22716;DHT22;11525;51.152;4.456;2023-09-30T09:50:32;28.60;83.50
22716;DHT22;11525;51.152;4.456;2023-09-30T09:52:58;28.30;84.60
22716;DHT22;11525;51.152;4.456;2023-09-30T09:55:26;27.50;86.50
22716;DHT22;11525;51.152;4.456;2023-09-30T09:57:53;27.20;90.40
22716;DHT22;11525;51.152;4.456;2023-09-30T10:00:22;27.70;88.50
22716;DHT22;11525;51.152;4.456;2023-09-30T10:02:49;28.30;85.10
22716;DHT22;11525;51.152;4.456;2023-09-30T10:05:16;28.50;84.60
22716;DHT22;11525;51.152;4.456;2023-09-30T10:07:52;29.30;81.40
22716;DHT22;11525;51.152;4.456;2023-09-30T10:10:20;29.80;78.90
22716;DHT22;11525;51.152;4.456;2023-09-30T10:12:46;30.30;75.20
22716;DHT22;11525;51.152;4.456;2023-09-30T10:18:00;30.70;72.50
22716;DHT22;11525;51.152;4.456;2023-09-30T10:20:39;30.70;73.00
22716;DHT22;11525;51.152;4.456;2023-09-30T10:25:48;29.90;72.20
22716;DHT22;11525;51.152;4.456;2023-09-30T10:31:14;27.30;84.10
22716;DHT22;11525;51.152;4.456;2023-09-30T10:34:19;26.60;89.80
22716;DHT22;11525;51.152;4.456;2023-09-30T10:36:46;25.50;91.40
22716;DHT22;11525;51.152;4.456;2023-09-30T10:39:13;25.00;93.70
22716;DHT22;11525;51.152;4.456;2023-09-30T10:47:34;23.30;99.90
22716;DHT22;11525;51.152;4.456;2023-09-30T10:49:40;23.00;99.90
22716;DHT22;11525;51.152;4.456;2023-09-30T10:52:06;22.60;99.90
22716;DHT22;11525;51.152;4.456;2023-09-30T10:54:32;22.50;99.90
22716;DHT22;11525;51.152;4.456;2023-09-30T10:57:00;22.50;99.90
22716;DHT22;11525;51.152;4.456;2023-09-30T10:59:29;22.40;99.90
22716;DHT22;11525;51.152;4.456;2023-09-30T11:02:00;22.40;99.90
22716;DHT22;11525;51.152;4.456;2023-09-30T11:04:26;22.40;99.90
22716;DHT22;11525;51.152;4.456;2023-09-30T11:06:55;22.40;99.90
22716;DHT22;11525;51.152;4.456;2023-09-30T11:09:22;22.20;99.90
22716;DHT22;11525;51.152;4.456;2023-09-30T11:11:50;22.20;99.90
22716;DHT22;11525;51.152;4.456;2023-09-30T11:14:36;22.10;99.90
22716;DHT22;11525;51.152;4.456;2023-09-30T11:17:03;22.10;99.90
22716;DHT22;11525;51.152;4.456;2023-09-30T11:19:58;22.10;99.90
22716;DHT22;11525;51.152;4.456;2023-09-30T11:22:23;22.20;99.90
22716;DHT22;11525;51.152;4.456;2023-09-30T11:24:49;21.80;99.90
22716;DHT22;11525;51.152;4.456;2023-09-30T11:27:22;21.50;99.90
22716;DHT22;11525;51.152;4.456;2023-09-30T11:29:50;21.60;99.90
22716;DHT22;11525;51.152;4.456;2023-09-30T11:32:26;21.80;99.90
22716;DHT22;11525;51.152;4.456;2023-09-30T11:34:52;21.70;99.90
22716;DHT22;11525;51.152;4.456;2023-09-30T11:37:18;21.80;99.90
22716;DHT22;11525;51.152;4.456;2023-09-30T11:39:44;22.00;99.90
22716;DHT22;11525;51.152;4.456;2023-09-30T11:42:17;22.30;99.90
22716;DHT22;11525;51.152;4.456;2023-09-30T11:44:46;22.60;99.90
22716;DHT22;11525;51.152;4.456;2023-09-30T11:47:15;22.90;99.90
22716;DHT22;11525;51.152;4.456;2023-09-30T11:49:52;23.00;99.90
22716;DHT22;11525;51.152;4.456;2023-09-30T11:52:26;23.10;99.90
22716;DHT22;11525;51.152;4.456;2023-09-30T11:54:54;23.20;99.90
22716;DHT22;11525;51.152;4.456;2023-09-30T11:57:19;23.20;99.90
22716;DHT22;11525;51.152;4.456;2023-09-30T11:59:46;23.10;99.90
22716;DHT22;11525;51.152;4.456;2023-09-30T12:02:14;23.00;99.90
22716;DHT22;11525;51.152;4.456;2023-09-30T12:04:41;22.90;99.90
22716;DHT22;11525;51.152;4.456;2023-09-30T12:07:07;22.80;99.90
22716;DHT22;11525;51.152;4.456;2023-09-30T12:09:34;22.70;99.90
22716;DHT22;11525;51.152;4.456;2023-09-30T12:12:03;22.30;99.90
22716;DHT22;11525;51.152;4.456;2023-09-30T12:14:28;22.10;99.70
22716;DHT22;11525;51.152;4.456;2023-09-30T12:16:57;21.90;99.90
22716;DHT22;11525;51.152;4.456;2023-09-30T12:19:23;22.00;99.90
22716;DHT22;11525;51.152;4.456;2023-09-30T12:21:50;22.00;99.90
22716;DHT22;11525;51.152;4.456;2023-09-30T12:24:16;21.70;99.90
22716;DHT22;11525;51.152;4.456;2023-09-30T12:26:44;21.50;99.90
22716;DHT22;11525;51.152;4.456;2023-09-30T12:29:17;21.70;99.90
22716;DHT22;11525;51.152;4.456;2023-09-30T12:31:46;21.90;98.60
22716;DHT22;11525;51.152;4.456;2023-09-30T12:34:12;22.40;99.00
22716;DHT22;11525;51.152;4.456;2023-09-30T12:36:42;22.80;97.80
22716;DHT22;11525;51.152;4.456;2023-09-30T12:39:09;23.10;98.70
22716;DHT22;11525;51.152;4.456;2023-09-30T12:41:42;23.00;98.50
22716;DHT22;11525;51.152;4.456;2023-09-30T12:44:09;23.20;97.10
22716;DHT22;11525;51.152;4.456;2023-09-30T12:46:35;23.40;96.20
22716;DHT22;11525;51.152;4.456;2023-09-30T12:49:03;23.60;96.30
22716;DHT22;11525;51.152;4.456;2023-09-30T12:51:29;23.60;96.00
22716;DHT22;11525;51.152;4.456;2023-09-30T12:53:55;23.70;96.40
22716;DHT22;11525;51.152;4.456;2023-09-30T12:56:22;23.70;95.90
22716;DHT22;11525;51.152;4.456;2023-09-30T12:58:47;23.50;96.50
22716;DHT22;11525;51.152;4.456;2023-09-30T13:01:13;23.40;96.70
22716;DHT22;11525;51.152;4.456;2023-09-30T13:03:39;23.30;97.90
22716;DHT22;11525;51.152;4.456;2023-09-30T13:06:05;23.20;98.00
22716;DHT22;11525;51.152;4.456;2023-09-30T13:08:31;23.20;98.70
22716;DHT22;11525;51.152;4.456;2023-09-30T13:11:00;23.20;98.10
22716;DHT22;11525;51.152;4.456;2023-09-30T13:13:31;23.40;98.40
22716;DHT22;11525;51.152;4.456;2023-09-30T13:15:59;23.40;95.80
22716;DHT22;11525;51.152;4.456;2023-09-30T13:18:24;23.30;94.70
22716;DHT22;11525;51.152;4.456;2023-09-30T13:20:50;23.00;95.40
22716;DHT22;11525;51.152;4.456;2023-09-30T13:23:18;23.10;95.60
22716;DHT22;11525;51.152;4.456;2023-09-30T13:25:44;22.90;95.50
22716;DHT22;11525;51.152;4.456;2023-09-30T13:28:10;23.10;96.20
22716;DHT22;11525;51.152;4.456;2023-09-30T13:30:36;23.00;96.50
22716;DHT22;11525;51.152;4.456;2023-09-30T13:33:01;23.00;96.10
22716;DHT22;11525;51.152;4.456;2023-09-30T13:35:27;23.10;95.80
22716;DHT22;11525;51.152;4.456;2023-09-30T13:37:53;23.10;96.00
22716;DHT22;11525;51.152;4.456;2023-09-30T13:40:19;23.10;96.40
22716;DHT22;11525;51.152;4.456;2023-09-30T13:42:45;23.10;96.70
22716;DHT22;11525;51.152;4.456;2023-09-30T13:45:11;22.90;96.20
22716;DHT22;11525;51.152;4.456;2023-09-30T13:47:37;22.90;96.60
22716;DHT22;11525;51.152;4.456;2023-09-30T13:50:03;22.90;96.90
22716;DHT22;11525;51.152;4.456;2023-09-30T13:52:35;23.00;97.40
22716;DHT22;11525;51.152;4.456;2023-09-30T13:55:01;23.00;96.80
22716;DHT22;11525;51.152;4.456;2023-09-30T13:57:28;23.00;96.90
22716;DHT22;11525;51.152;4.456;2023-09-30T13:59:54;23.00;96.20
22716;DHT22;11525;51.152;4.456;2023-09-30T14:02:19;22.90;95.70
22716;DHT22;11525;51.152;4.456;2023-09-30T14:04:45;23.00;95.40
22716;DHT22;11525;51.152;4.456;2023-09-30T14:07:12;22.80;95.30
22716;DHT22;11525;51.152;4.456;2023-09-30T14:09:38;22.90;96.70
22716;DHT22;11525;51.152;4.456;2023-09-30T14:12:03;22.80;96.30
22716;DHT22;11525;51.152;4.456;2023-09-30T14:14:32;22.80;95.80
22716;DHT22;11525;51.152;4.456;2023-09-30T14:16:59;22.80;96.20
22716;DHT22;11525;51.152;4.456;2023-09-30T14:19:24;22.70;95.60
22716;DHT22;11525;51.152;4.456;2023-09-30T14:21:50;22.80;96.60
22716;DHT22;11525;51.152;4.456;2023-09-30T14:24:16;22.90;96.40
22716;DHT22;11525;51.152;4.456;2023-09-30T14:26:41;22.90;96.70
22716;DHT22;11525;51.152;4.456;2023-09-30T14:29:08;22.80;97.00
22716;DHT22;11525;51.152;4.456;2023-09-30T14:31:34;22.80;96.70
22716;DHT22;11525;51.152;4.456;2023-09-30T14:34:00;22.70;97.80
22716;DHT22;11525;51.152;4.456;2023-09-30T14:36:26;22.70;96.50
22716;DHT22;11525;51.152;4.456;2023-09-30T14:38:52;22.80;96.10
22716;DHT22;11525;51.152;4.456;2023-09-30T14:41:17;22.70;96.30
22716;DHT22;11525;51.152;4.456;2023-09-30T14:43:44;22.60;96.60
22716;DHT22;11525;51.152;4.456;2023-09-30T14:46:09;22.60;96.70
22716;DHT22;11525;51.152;4.456;2023-09-30T14:48:35;22.60;96.10
22716;DHT22;11525;51.152;4.456;2023-09-30T14:51:01;22.40;96.10
22716;DHT22;11525;51.152;4.456;2023-09-30T14:53:30;22.30;96.10
22716;DHT22;11525;51.152;4.456;2023-09-30T14:55:55;22.10;96.50
22716;DHT22;11525;51.152;4.456;2023-09-30T14:58:21;21.80;97.40
22716;DHT22;11525;51.152;4.456;2023-09-30T15:00:47;21.70;98.90
22716;DHT22;11525;51.152;4.456;2023-09-30T15:03:13;21.60;98.70
22716;DHT22;11525;51.152;4.456;2023-09-30T15:05:38;21.40;98.80
22716;DHT22;11525;51.152;4.456;2023-09-30T15:08:04;21.30;98.80
22716;DHT22;11525;51.152;4.456;2023-09-30T15:10:30;21.40;99.90
22716;DHT22;11525;51.152;4.456;2023-09-30T15:12:58;21.50;99.90
22716;DHT22;11525;51.152;4.456;2023-09-30T15:15:24;21.60;99.90
22716;DHT22;11525;51.152;4.456;2023-09-30T15:17:50;21.70;99.90
22716;DHT22;11525;51.152;4.456;2023-09-30T15:20:17;21.70;99.90
22716;DHT22;11525;51.152;4.456;2023-09-30T15:22:43;21.70;99.90
22716;DHT22;11525;51.152;4.456;2023-09-30T15:25:09;21.80;99.90
22716;DHT22;11525;51.152;4.456;2023-09-30T15:27:35;21.80;99.90
22716;DHT22;11525;51.152;4.456;2023-09-30T15:30:01;21.80;99.90
22716;DHT22;11525;51.152;4.456;2023-09-30T15:32:28;21.80;99.80
22716;DHT22;11525;51.152;4.456;2023-09-30T15:34:54;21.70;99.70
22716;DHT22;11525;51.152;4.456;2023-09-30T15:37:20;21.60;99.90
22716;DHT22;11525;51.152;4.456;2023-09-30T15:39:45;21.50;99.90
22716;DHT22;11525;51.152;4.456;2023-09-30T15:42:13;21.50;99.90
22716;DHT22;11525;51.152;4.456;2023-09-30T15:44:39;21.50;99.90
22716;DHT22;11525;51.152;4.456;2023-09-30T15:47:08;21.50;99.90
22716;DHT22;11525;51.152;4.456;2023-09-30T15:49:35;21.50;99.90